createdAt,value
2022-10-29T00:01:03.955Z,10.27
2022-10-29T00:03:32.216Z,6.87
2022-10-29T00:06:05.041Z,6.53
2022-10-29T00:08:33.949Z,6.50
2022-10-29T00:11:15.357Z,4.77
2022-10-29T00:13:43.385Z,7.90
2022-10-29T00:16:21.541Z,10.37
2022-10-29T00:18:49.483Z,8.33
2022-10-29T00:21:18.934Z,11.70
2022-10-29T00:23:46.973Z,6.43
2022-10-29T00:26:15.189Z,7.63
2022-10-29T00:28:42.955Z,7.47
2022-10-29T00:31:17.750Z,9.10
2022-10-29T00:33:45.792Z,9.13
2022-10-29T00:36:15.430Z,9.17
2022-10-29T00:38:43.221Z,11.03
2022-10-29T00:41:13.782Z,7.23
2022-10-29T00:43:52.117Z,10.23
2022-10-29T00:46:25.843Z,8.27
2022-10-29T00:48:54.099Z,6.30
2022-10-29T00:51:21.842Z,6.17
2022-10-29T00:53:52.391Z,6.00
2022-10-29T00:56:20.191Z,8.33
2022-10-29T00:58:47.881Z,6.63
2022-10-29T01:01:15.918Z,7.67
2022-10-29T01:03:44.325Z,9.83
2022-10-29T01:06:12.103Z,7.73
2022-10-29T01:08:39.832Z,7.53
2022-10-29T01:11:29.259Z,6.17
2022-10-29T01:14:18.794Z,8.63
2022-10-29T01:17:17.916Z,7.80
2022-10-29T01:20:21.493Z,7.57
2022-10-29T01:23:02.212Z,8.93
2022-10-29T01:25:54.631Z,8.13
2022-10-29T01:28:32.408Z,8.50
2022-10-29T01:31:09.270Z,11.00
2022-10-29T01:33:43.238Z,7.30
2022-10-29T01:36:34.958Z,9.20
2022-10-29T01:39:22.930Z,10.33
2022-10-29T01:42:13.897Z,9.10
2022-10-29T01:45:02.120Z,10.57
2022-10-29T01:47:32.036Z,8.10
2022-10-29T01:50:03.975Z,7.17
2022-10-29T01:52:33.535Z,9.87
2022-10-29T01:55:01.322Z,8.37
2022-10-29T01:57:36.363Z,11.37
2022-10-29T02:00:08.009Z,5.80
2022-10-29T02:03:03.467Z,8.40
2022-10-29T02:05:52.495Z,12.57
2022-10-29T02:08:20.502Z,9.37
2022-10-29T02:11:02.019Z,6.77
2022-10-29T02:13:34.321Z,11.00
2022-10-29T02:16:02.148Z,9.80
2022-10-29T02:18:29.927Z,7.43
2022-10-29T02:20:57.707Z,9.83
2022-10-29T02:23:25.487Z,10.37
2022-10-29T02:25:53.308Z,10.25
2022-10-29T02:30:53.761Z,8.90
2022-10-29T02:33:22.735Z,8.97
2022-10-29T02:35:50.451Z,10.50
2022-10-29T02:38:18.285Z,10.37
2022-10-29T02:40:46.060Z,10.70
2022-10-29T02:43:13.912Z,7.57
2022-10-29T02:45:41.743Z,8.55
2022-10-29T02:48:09.508Z,8.45
2022-10-29T02:50:37.301Z,9.33
2022-10-29T02:53:05.050Z,8.77
2022-10-29T02:55:32.803Z,9.18
2022-10-29T02:58:00.631Z,10.40
2022-10-29T03:00:28.404Z,10.20
2022-10-29T03:02:56.488Z,8.17
2022-10-29T03:05:24.413Z,8.37
2022-10-29T03:07:52.125Z,7.00
2022-10-29T03:10:19.841Z,12.13
2022-10-29T03:12:47.577Z,7.80
2022-10-29T03:15:15.422Z,8.97
2022-10-29T03:17:43.194Z,6.80
2022-10-29T03:20:11.257Z,8.80
2022-10-29T03:22:39.049Z,7.37
2022-10-29T03:25:07.340Z,8.90
2022-10-29T03:27:46.222Z,7.20
2022-10-29T03:30:14.849Z,7.43
2022-10-29T03:32:46.889Z,6.67
2022-10-29T03:35:15.462Z,7.57
2022-10-29T03:37:43.236Z,10.00
2022-10-29T03:40:11.382Z,9.15
2022-10-29T03:42:39.972Z,9.27
2022-10-29T03:45:08.083Z,6.70
2022-10-29T03:47:35.848Z,8.87
2022-10-29T03:50:03.679Z,8.93
2022-10-29T03:52:31.459Z,9.23
2022-10-29T03:54:59.147Z,12.13
2022-10-29T03:57:26.917Z,12.63
2022-10-29T03:59:54.756Z,9.37
2022-10-29T04:02:22.627Z,8.27
2022-10-29T04:04:50.456Z,9.17
2022-10-29T04:07:18.331Z,10.68
2022-10-29T04:09:46.127Z,10.68
2022-10-29T04:12:13.848Z,7.17
2022-10-29T04:14:45.587Z,8.10
2022-10-29T04:17:13.905Z,10.40
2022-10-29T04:19:41.749Z,9.00
2022-10-29T04:28:41.336Z,8.20
2022-10-29T04:30:32.638Z,7.43
2022-10-29T04:33:00.847Z,8.93
2022-10-29T04:35:29.456Z,6.83
2022-10-29T04:37:57.182Z,8.63
2022-10-29T04:40:25.635Z,8.53
2022-10-29T04:42:53.554Z,9.82
2022-10-29T04:45:21.465Z,8.70
2022-10-29T04:47:49.215Z,8.90
2022-10-29T04:50:17.016Z,9.90
2022-10-29T04:52:44.698Z,9.90
2022-10-29T04:55:12.451Z,10.20
2022-10-29T04:57:40.174Z,8.65
2022-10-29T05:00:08.478Z,7.80
2022-10-29T05:02:37.133Z,10.95
2022-10-29T05:05:04.985Z,11.38
2022-10-29T05:07:32.730Z,13.18
2022-10-29T05:10:00.625Z,9.63
2022-10-29T05:12:28.411Z,10.13
2022-10-29T05:14:56.417Z,8.73
2022-10-29T05:17:24.169Z,8.77
2022-10-29T05:19:51.929Z,11.73
2022-10-29T05:22:19.704Z,9.90
2022-10-29T05:24:47.489Z,9.30
2022-10-29T05:27:15.434Z,13.90
2022-10-29T05:29:43.189Z,15.03
2022-10-29T05:32:10.953Z,18.33
2022-10-29T05:34:42.032Z,14.77
2022-10-29T05:37:12.071Z,18.30
2022-10-29T05:39:39.868Z,14.27
2022-10-29T05:42:07.730Z,28.58
2022-10-29T05:44:35.473Z,16.20
2022-10-29T05:47:03.288Z,12.87
2022-10-29T05:49:30.987Z,21.13
2022-10-29T05:51:58.725Z,12.60
2022-10-29T05:54:26.474Z,16.48
2022-10-29T05:56:54.228Z,13.70
2022-10-29T05:59:22.208Z,17.35
2022-10-29T06:01:50.107Z,21.40
2022-10-29T06:04:17.974Z,19.23
2022-10-29T06:06:45.813Z,17.80
2022-10-29T06:09:13.598Z,14.10
2022-10-29T06:11:41.292Z,24.50
2022-10-29T06:14:09.032Z,29.35
2022-10-29T06:16:36.799Z,46.85
2022-10-29T06:19:04.603Z,11.12
2022-10-29T06:21:32.297Z,30.95
2022-10-29T06:24:00.003Z,27.47
2022-10-29T06:26:27.784Z,20.08
2022-10-29T06:28:55.527Z,23.60
2022-10-29T06:31:23.285Z,10.93
2022-10-29T06:33:51.065Z,19.10
2022-10-29T06:36:18.898Z,44.97
2022-10-29T06:38:46.679Z,21.12
2022-10-29T06:41:14.524Z,30.45
2022-10-29T06:43:42.414Z,37.42
2022-10-29T06:46:10.187Z,33.30
2022-10-29T06:48:37.927Z,28.77
2022-10-29T06:51:06.024Z,17.55
2022-10-29T06:53:33.743Z,26.15
2022-10-29T06:56:01.534Z,41.35
2022-10-29T06:58:33.073Z,43.90
2022-10-29T07:01:04.299Z,29.07
2022-10-29T07:03:32.131Z,8.50
2022-10-29T07:06:03.598Z,15.02
2022-10-29T07:08:34.538Z,17.73
2022-10-29T07:11:04.002Z,23.53
2022-10-29T07:13:31.768Z,13.63
2022-10-29T07:15:59.647Z,28.20
2022-10-29T07:18:39.302Z,20.12
2022-10-29T07:21:07.354Z,11.57
2022-10-29T07:23:35.554Z,11.77
2022-10-29T07:26:03.468Z,15.27
2022-10-29T07:28:31.336Z,15.85
2022-10-29T07:31:02.404Z,11.57
2022-10-29T07:33:31.617Z,10.30
2022-10-29T07:36:00.005Z,11.67
2022-10-29T07:38:27.848Z,11.93
2022-10-29T07:40:55.778Z,13.00
2022-10-29T07:43:23.966Z,10.50
2022-10-29T07:45:52.163Z,7.93
2022-10-29T07:48:20.868Z,11.47
2022-10-29T07:50:49.114Z,9.68
2022-10-29T07:53:17.116Z,26.02
2022-10-29T07:55:44.878Z,16.62
2022-10-29T07:58:13.145Z,7.43
2022-10-29T08:00:41.730Z,5.43
2022-10-29T08:03:09.630Z,5.25
2022-10-29T08:05:37.360Z,6.28
2022-10-29T08:08:05.712Z,6.05
2022-10-29T08:10:34.364Z,21.67
2022-10-29T08:13:03.214Z,8.30
2022-10-29T08:15:32.029Z,6.55
2022-10-29T08:17:59.798Z,8.75
2022-10-29T08:20:28.579Z,14.27
2022-10-29T08:22:56.552Z,5.65
2022-10-29T08:25:24.481Z,8.00
2022-10-29T08:28:02.887Z,7.68
2022-10-29T08:30:30.846Z,6.30
2022-10-29T08:32:59.349Z,5.80
2022-10-29T08:35:27.987Z,6.25
2022-10-29T08:37:56.210Z,5.75
2022-10-29T08:40:31.682Z,7.72
2022-10-29T08:43:07.857Z,8.68
2022-10-29T08:45:47.848Z,6.45
2022-10-29T08:48:42.862Z,6.10
2022-10-29T08:51:37.805Z,10.50
2022-10-29T08:56:57.947Z,7.95
2022-10-29T08:59:26.601Z,7.32
2022-10-29T09:01:54.817Z,15.40
2022-10-29T09:04:31.244Z,8.82
2022-10-29T09:06:58.880Z,8.32
2022-10-29T09:09:40.171Z,8.23
2022-10-29T09:12:52.543Z,7.35
2022-10-29T09:15:35.389Z,7.28
2022-10-29T09:18:20.043Z,10.27
2022-10-29T09:20:53.808Z,9.20
2022-10-29T09:24:06.232Z,7.68
2022-10-29T09:26:39.952Z,6.53
2022-10-29T09:29:38.308Z,9.35
2022-10-29T09:32:10.025Z,10.27
2022-10-29T09:34:56.548Z,7.62
2022-10-29T09:37:45.392Z,6.95
2022-10-29T09:40:30.252Z,7.93
2022-10-29T09:42:59.508Z,7.78
2022-10-29T09:45:36.957Z,9.45
2022-10-29T09:48:17.473Z,7.62
2022-10-29T09:51:21.377Z,7.55
2022-10-29T09:53:50.403Z,7.85
2022-10-29T09:56:18.255Z,8.85
2022-10-29T09:58:47.379Z,7.95
2022-10-29T10:01:15.212Z,7.30
2022-10-29T10:03:47.023Z,8.60
2022-10-29T10:06:16.766Z,8.27
2022-10-29T10:09:05.946Z,7.35
2022-10-29T10:11:43.680Z,7.82
2022-10-29T10:14:23.914Z,8.15
2022-10-29T10:17:01.454Z,8.27
2022-10-29T10:19:32.263Z,7.78
2022-10-29T10:22:05.314Z,7.68
2022-10-29T10:24:37.317Z,7.90
2022-10-29T10:27:20.018Z,7.37
2022-10-29T10:30:19.111Z,8.35
2022-10-29T10:32:46.880Z,8.60
2022-10-29T10:35:33.098Z,8.27
2022-10-29T10:38:01.309Z,7.57
2022-10-29T10:40:29.161Z,8.00
2022-10-29T10:42:57.071Z,8.18
2022-10-29T10:45:26.776Z,8.52
2022-10-29T10:47:59.398Z,8.15
2022-10-29T10:50:32.274Z,8.63
2022-10-29T10:53:15.958Z,8.35
2022-10-29T10:55:59.013Z,7.87
2022-10-29T10:58:33.310Z,7.97
2022-10-29T11:01:20.643Z,8.05
2022-10-29T11:03:59.055Z,7.72
2022-10-29T11:06:31.010Z,10.60
2022-10-29T11:09:04.835Z,12.85
2022-10-29T11:12:04.505Z,9.25
2022-10-29T11:14:46.811Z,9.30
2022-10-29T11:17:25.300Z,9.20
2022-10-29T11:19:53.284Z,9.68
2022-10-29T11:22:55.036Z,9.50
2022-10-29T11:25:32.586Z,10.13
2022-10-29T11:28:06.486Z,10.07
2022-10-29T11:30:37.917Z,10.55
2022-10-29T11:33:36.188Z,10.18
2022-10-29T11:36:18.733Z,9.75
2022-10-29T11:38:58.172Z,9.13
2022-10-29T11:41:58.958Z,12.77
2022-10-29T11:44:27.097Z,18.98
2022-10-29T11:47:18.163Z,11.65
2022-10-29T11:49:57.992Z,11.73
2022-10-29T11:52:44.384Z,12.57
2022-10-29T11:55:18.103Z,14.13
2022-10-29T11:57:48.881Z,11.12
2022-10-29T12:00:21.245Z,9.95
2022-10-29T12:02:55.488Z,15.23
2022-10-29T12:05:42.229Z,13.02
2022-10-29T12:08:30.994Z,13.07
2022-10-29T12:11:07.577Z,12.02
2022-10-29T12:13:50.648Z,10.60
2022-10-29T12:16:29.801Z,12.43
2022-10-29T12:18:57.427Z,14.30
2022-10-29T12:21:48.670Z,11.65
2022-10-29T12:24:53.725Z,10.63
2022-10-29T12:27:44.825Z,11.23
2022-10-29T12:30:14.127Z,14.80
2022-10-29T12:32:57.637Z,9.88
2022-10-29T12:35:30.770Z,12.50
2022-10-29T12:38:20.379Z,12.63
2022-10-29T12:40:51.065Z,13.20
2022-10-29T12:43:30.772Z,10.27
2022-10-29T12:46:22.940Z,9.88
2022-10-29T12:49:13.982Z,9.88
2022-10-29T12:51:54.751Z,10.15
2022-10-29T12:54:28.155Z,11.25
2022-10-29T12:56:57.742Z,8.02
2022-10-29T12:59:25.348Z,11.73
2022-10-29T13:04:41.149Z,9.57
2022-10-29T13:10:25.731Z,9.45
2022-10-29T13:12:56.416Z,9.38
2022-10-29T13:15:25.291Z,10.45
2022-10-29T13:17:53.471Z,10.95
2022-10-29T13:20:42.839Z,10.88
2022-10-29T13:23:36.993Z,10.70
2022-10-29T13:26:10.620Z,10.45
2022-10-29T13:28:38.288Z,11.90
2022-10-29T13:31:05.935Z,12.32
2022-10-29T13:33:33.557Z,12.00
2022-10-29T13:36:05.903Z,13.25
2022-10-29T13:39:04.685Z,11.00
2022-10-29T13:41:44.006Z,9.82
2022-10-29T13:44:12.613Z,10.10
2022-10-29T13:47:06.443Z,7.20
2022-10-29T13:49:39.167Z,8.98
2022-10-29T13:52:09.790Z,9.80
2022-10-29T13:54:56.429Z,7.70
2022-10-29T13:57:39.010Z,8.20
2022-10-29T14:00:06.985Z,12.88
2022-10-29T14:02:38.331Z,10.73
2022-10-29T14:05:20.393Z,10.20
2022-10-29T14:08:00.500Z,9.40
2022-10-29T14:10:42.831Z,10.77
2022-10-29T14:13:32.497Z,12.13
2022-10-29T14:16:13.091Z,9.18
2022-10-29T14:18:45.568Z,7.62
2022-10-29T14:21:23.175Z,7.62
2022-10-29T14:24:00.965Z,10.75
2022-10-29T14:26:30.417Z,10.68
2022-10-29T14:29:04.367Z,9.48
2022-10-29T14:31:32.243Z,8.85
2022-10-29T14:34:00.992Z,9.65
2022-10-29T14:36:45.011Z,10.73
2022-10-29T14:39:32.384Z,18.70
2022-10-29T14:42:05.695Z,11.95
2022-10-29T14:44:34.116Z,8.82
2022-10-29T14:47:26.619Z,10.55
2022-10-29T14:49:59.744Z,10.77
2022-10-29T14:52:40.675Z,10.48
2022-10-29T14:55:25.882Z,9.57
2022-10-29T14:58:17.665Z,10.30
2022-10-29T15:01:01.795Z,10.38
2022-10-29T15:03:32.119Z,9.30
2022-10-29T15:06:20.209Z,9.52
2022-10-29T15:08:58.966Z,8.20
2022-10-29T15:11:39.735Z,12.75
2022-10-29T15:14:33.712Z,9.10
2022-10-29T15:19:46.561Z,7.32
2022-10-29T15:22:20.658Z,12.43
2022-10-29T15:24:51.872Z,8.05
2022-10-29T15:27:19.683Z,8.30
2022-10-29T15:29:48.876Z,9.07
2022-10-29T15:32:18.245Z,9.35
2022-10-29T15:34:54.021Z,12.43
2022-10-29T15:37:34.044Z,8.88
2022-10-29T15:40:02.943Z,9.88
2022-10-29T15:42:33.488Z,8.60
2022-10-29T15:45:08.384Z,14.48
2022-10-29T15:47:37.791Z,15.60
2022-10-29T15:50:06.838Z,9.82
2022-10-29T15:52:54.427Z,9.98
2022-10-29T15:55:27.519Z,11.80
2022-10-29T15:57:57.138Z,13.00
2022-10-29T16:00:25.326Z,9.50
2022-10-29T16:02:53.191Z,13.30
2022-10-29T16:05:21.095Z,11.88
2022-10-29T16:07:49.613Z,10.73
2022-10-29T16:10:19.834Z,13.10
2022-10-29T16:12:48.894Z,9.70
2022-10-29T16:15:18.587Z,8.45
2022-10-29T16:17:47.121Z,9.80
2022-10-29T16:20:19.283Z,13.75
2022-10-29T16:22:47.728Z,7.90
2022-10-29T16:25:26.902Z,9.50
2022-10-29T16:27:55.473Z,12.05
2022-10-29T16:30:24.369Z,8.50
2022-10-29T16:32:53.589Z,10.82
2022-10-29T16:35:22.808Z,10.32
2022-10-29T16:37:57.269Z,10.50
2022-10-29T16:40:28.909Z,10.23
2022-10-29T16:42:57.996Z,9.40
2022-10-29T16:45:28.274Z,9.98
2022-10-29T16:47:56.844Z,10.02
2022-10-29T16:50:27.171Z,8.32
2022-10-29T16:53:08.927Z,10.40
2022-10-29T16:55:38.241Z,9.65
2022-10-29T16:58:08.152Z,10.77
2022-10-29T17:00:37.816Z,9.15
2022-10-29T17:03:10.028Z,7.28
2022-10-29T17:05:39.792Z,11.98
2022-10-29T17:08:07.619Z,9.23
2022-10-29T17:10:35.851Z,9.32
2022-10-29T17:13:03.681Z,10.05
2022-10-29T17:15:31.903Z,10.65
2022-10-29T17:17:59.876Z,11.90
2022-10-29T17:20:27.965Z,11.45
2022-10-29T17:22:55.708Z,12.68
2022-10-29T17:25:24.012Z,12.20
2022-10-29T17:27:51.850Z,14.35
2022-10-29T17:30:19.708Z,14.18
2022-10-29T17:32:48.795Z,13.23
2022-10-29T17:35:16.628Z,13.85
2022-10-29T17:37:44.590Z,10.88
2022-10-29T17:40:12.711Z,18.58
2022-10-29T17:42:40.735Z,11.82
2022-10-29T17:45:09.377Z,11.95
2022-10-29T17:47:37.467Z,14.82
2022-10-29T17:50:06.103Z,12.43
2022-10-29T17:52:33.919Z,13.48
2022-10-29T17:55:01.768Z,10.88
2022-10-29T17:57:29.612Z,12.07
2022-10-29T17:59:57.505Z,14.30
2022-10-29T18:02:25.355Z,14.90
2022-10-29T18:04:53.569Z,14.63
2022-10-29T18:07:21.703Z,13.90
2022-10-29T18:09:49.867Z,14.35
2022-10-29T18:12:17.790Z,16.27
2022-10-29T18:14:46.636Z,15.48
2022-10-29T18:17:14.471Z,17.45
2022-10-29T18:19:43.531Z,19.52
2022-10-29T18:22:11.481Z,17.33
2022-10-29T18:24:40.580Z,14.45
2022-10-29T18:27:08.563Z,15.63
2022-10-29T18:29:36.750Z,18.65
2022-10-29T18:32:04.643Z,16.80
2022-10-29T18:34:33.577Z,17.25
2022-10-29T18:37:03.616Z,16.37
2022-10-29T18:39:31.479Z,18.48
2022-10-29T18:41:59.920Z,16.35
2022-10-29T18:44:27.976Z,17.08
2022-10-29T18:46:55.886Z,21.30
2022-10-29T18:49:23.828Z,17.75
2022-10-29T18:51:51.928Z,16.45
2022-10-29T18:54:20.924Z,20.08
2022-10-29T18:56:48.852Z,13.88
2022-10-29T18:59:16.728Z,17.42
2022-10-29T19:01:44.828Z,18.95
2022-10-29T19:04:14.687Z,18.65
2022-10-29T19:06:42.680Z,14.05
2022-10-29T19:09:11.032Z,16.02
2022-10-29T19:11:39.277Z,16.90
2022-10-29T19:14:10.837Z,15.68
2022-10-29T19:16:39.096Z,15.25
2022-10-29T19:19:08.682Z,16.75
2022-10-29T19:21:36.870Z,15.02
2022-10-29T19:24:05.327Z,15.05
2022-10-29T19:26:35.026Z,17.20
2022-10-29T19:29:05.068Z,14.85
2022-10-29T19:31:33.395Z,15.05
2022-10-29T19:34:03.000Z,13.45
2022-10-29T19:36:31.067Z,16.08
2022-10-29T19:38:59.352Z,15.13
2022-10-29T19:41:27.713Z,14.90
2022-10-29T19:43:58.807Z,13.23
2022-10-29T19:46:26.573Z,12.13
2022-10-29T19:48:55.572Z,10.88
2022-10-29T19:51:23.425Z,13.48
2022-10-29T19:53:52.742Z,14.68
2022-10-29T19:56:21.116Z,15.07
2022-10-29T19:58:49.067Z,17.73
2022-10-29T20:01:20.365Z,12.48
2022-10-29T20:03:51.240Z,16.60
2022-10-29T20:06:19.080Z,9.70
2022-10-29T20:08:46.924Z,15.13
2022-10-29T20:11:14.801Z,12.90
2022-10-29T20:13:42.708Z,14.68
2022-10-29T20:16:11.867Z,14.35
2022-10-29T20:18:39.746Z,14.82
2022-10-29T20:21:07.983Z,12.02
2022-10-29T20:23:36.143Z,12.93
2022-10-29T20:26:04.077Z,10.90
2022-10-29T20:28:31.956Z,14.68
2022-10-29T20:31:17.948Z,15.32
2022-10-29T20:33:52.887Z,10.70
2022-10-29T20:36:20.915Z,12.48
2022-10-29T20:38:52.269Z,12.77
2022-10-29T20:41:20.021Z,11.63
2022-10-29T20:43:58.595Z,12.88
2022-10-29T20:46:29.631Z,11.82
2022-10-29T20:48:58.342Z,10.95
2022-10-29T20:51:26.498Z,12.60
2022-10-29T20:53:54.516Z,15.93
2022-10-29T20:56:23.779Z,15.68
2022-10-29T20:58:51.751Z,10.80
2022-10-29T21:01:20.741Z,11.23
2022-10-29T21:03:49.276Z,14.00
2022-10-29T21:06:17.681Z,14.63
2022-10-29T21:08:49.386Z,11.75
2022-10-29T21:11:17.977Z,12.93
2022-10-29T21:13:45.893Z,17.02
2022-10-29T21:16:30.676Z,13.35
2022-10-29T21:19:00.005Z,9.65
2022-10-29T21:21:28.542Z,12.82
2022-10-29T21:23:57.493Z,11.65
2022-10-29T21:26:26.345Z,16.05
2022-10-29T21:28:54.335Z,13.18
2022-10-29T21:31:22.738Z,15.07
2022-10-29T21:33:54.047Z,11.57
2022-10-29T21:36:22.381Z,12.98
2022-10-29T21:38:50.529Z,12.80
2022-10-29T21:41:19.375Z,15.57
2022-10-29T21:43:47.185Z,14.23
2022-10-29T21:46:14.988Z,12.93
2022-10-29T21:48:42.771Z,11.12
2022-10-29T21:51:14.776Z,9.68
2022-10-29T21:53:42.781Z,14.35
2022-10-29T21:56:12.986Z,9.43
2022-10-29T21:58:40.711Z,14.32
2022-10-29T22:01:10.586Z,14.55
2022-10-29T22:03:39.379Z,17.80
2022-10-29T22:06:28.850Z,13.27
2022-10-29T22:08:57.983Z,11.50
2022-10-29T22:11:26.341Z,11.10
2022-10-29T22:13:54.622Z,13.40
2022-10-29T22:16:22.880Z,15.00
2022-10-29T22:18:51.086Z,10.38
2022-10-29T22:21:20.953Z,17.30
2022-10-29T22:23:49.559Z,17.08
2022-10-29T22:26:18.438Z,13.13
2022-10-29T22:28:46.588Z,11.45
2022-10-29T22:31:15.808Z,13.33
2022-10-29T22:33:44.293Z,11.17
2022-10-29T22:36:16.581Z,11.93
2022-10-29T22:38:44.479Z,10.40
2022-10-29T22:41:16.757Z,10.70
2022-10-29T22:43:44.924Z,9.63
2022-10-29T22:46:17.282Z,8.63
2022-10-29T22:48:45.003Z,14.50
2022-10-29T22:51:25.767Z,10.47
2022-10-29T22:53:54.038Z,13.03
2022-10-29T22:56:26.146Z,10.10
2022-10-29T22:58:54.183Z,9.63
2022-10-29T23:01:23.901Z,13.63
2022-10-29T23:03:52.081Z,11.87
2022-10-29T23:06:22.068Z,11.43
2022-10-29T23:08:52.152Z,11.60
2022-10-29T23:11:24.283Z,9.43
2022-10-29T23:14:02.662Z,10.77
2022-10-29T23:16:31.824Z,9.70
2022-10-29T23:19:02.179Z,9.17
2022-10-29T23:21:30.157Z,10.90
2022-10-29T23:23:58.031Z,12.88
2022-10-29T23:26:26.319Z,8.67
2022-10-29T23:28:54.129Z,10.27
2022-10-29T23:31:26.329Z,9.00
2022-10-29T23:33:55.287Z,10.60
2022-10-29T23:36:24.024Z,10.87
2022-10-29T23:38:58.598Z,9.25
2022-10-29T23:41:27.063Z,11.60
2022-10-29T23:43:54.877Z,14.30
2022-10-29T23:46:22.692Z,13.00
2022-10-29T23:48:50.704Z,9.60
2022-10-29T23:51:18.704Z,13.40
2022-10-29T23:53:47.584Z,16.10
2022-10-29T23:56:16.887Z,10.47
2022-10-29T23:58:46.908Z,10.47
